Time;durP1;ratioP1;P1;durP2;ratioP2;P2;SDS_P1;SDS_P2;PMS_P1;PMS_P2;Temp;Humidity;BMP_temperature;BMP_pressure;BME280_temperature;BME280_humidity;BME280_pressure;Samples;Min_cycle;Max_cycle;Signal;HPM_P1;HPM_P2
2022/01/15 00:00:08;;;;;;;12.85;5.22;;;;;;;4.88;97.28;103283.31;2115154;27;35620;-77
2022/01/15 00:01:12;;;;;;;13.32;5.03;;;;;;;4.86;98.06;103287.63;2107861;27;20048;-78
2022/01/15 00:02:17;;;;;;;14.32;5.80;;;;;;;4.84;98.55;103294.63;2106096;28;43353;-77
2022/01/15 00:03:19;;;;;;;18.25;5.88;;;;;;;4.81;97.78;103294.53;2106492;28;44398;-78
2022/01/15 00:04:23;;;;;;;18.98;6.47;;;;;;;4.81;98.16;103283.91;2105275;28;44570;-78
2022/01/15 00:05:24;;;;;;;13.63;5.22;;;;;;;4.81;97.89;103283.91;2105147;28;43924;-77
2022/01/15 00:06:26;;;;;;;16.38;5.93;;;;;;;4.81;98.70;103289.22;2105805;28;45091;-77
2022/01/15 00:07:28;;;;;;;14.95;4.90;;;;;;;4.83;98.29;103281.28;2105786;28;43671;-77
2022/01/15 00:08:29;;;;;;;18.33;6.13;;;;;;;4.83;98.21;103286.59;2105031;28;45197;-76
2022/01/15 00:09:37;;;;;;;16.98;6.22;;;;;;;4.84;98.90;103280.47;2104725;28;43607;-79
2022/01/15 00:10:39;;;;;;;15.88;6.25;;;;;;;4.84;97.76;103280.47;2105827;28;44845;-76
2022/01/15 00:11:41;;;;;;;17.60;5.60;;;;;;;4.82;98.27;103280.41;2105181;28;37142;-76
2022/01/15 00:12:48;;;;;;;17.75;5.57;;;;;;;4.83;98.37;103276.00;2112212;28;40533;-76
2022/01/15 00:13:57;;;;;;;22.63;5.65;;;;;;;4.81;98.43;103275.97;2114127;28;44029;-76
2022/01/15 00:15:00;;;;;;;13.40;4.80;;;;;;;4.81;98.34;103275.97;2113758;28;42964;-76
2022/01/15 00:16:09;;;;;;;18.10;4.85;;;;;;;4.82;98.32;103275.09;2113507;28;45521;-78
2022/01/15 00:17:20;;;;;;;16.08;4.60;;;;;;;4.83;98.15;103265.38;2113912;27;46493;-77
2022/01/15 00:18:41;;;;;;;14.48;5.30;;;;;;;4.79;97.50;103269.66;2114060;27;43666;-77
2022/01/15 00:19:43;;;;;;;20.15;5.10;;;;;;;4.78;98.82;103267.88;2113141;28;43387;-77
2022/01/15 00:20:45;;;;;;;10.43;5.10;;;;;;;4.76;98.27;103264.25;2113945;28;44373;-76
2022/01/15 00:21:46;;;;;;;20.50;5.63;;;;;;;4.74;98.22;103265.94;2113925;27;44610;-77
2022/01/15 00:22:48;;;;;;;18.20;5.22;;;;;;;4.75;98.02;103258.03;2113781;28;45145;-77
2022/01/15 00:23:51;;;;;;;17.00;6.05;;;;;;;4.71;98.71;103260.50;2113874;28;43645;-76
2022/01/15 00:24:53;;;;;;;16.58;5.82;;;;;;;4.73;98.59;103261.47;2113219;28;45039;-77
2022/01/15 00:25:55;;;;;;;20.08;6.07;;;;;;;4.71;98.76;103255.22;2114007;28;46312;-76
2022/01/15 00:26:56;;;;;;;17.85;6.47;;;;;;;4.70;97.83;103254.31;2114001;28;43571;-76
2022/01/15 00:28:00;;;;;;;26.45;6.35;;;;;;;4.68;98.46;103250.66;2113716;27;45079;-77
2022/01/15 00:29:03;;;;;;;16.50;6.47;;;;;;;4.67;98.07;103259.50;2114888;27;20083;-77
2022/01/15 00:30:06;;;;;;;31.05;7.47;;;;;;;4.66;98.60;103262.97;2114127;28;44270;-76
2022/01/15 00:31:08;;;;;;;36.58;6.97;;;;;;;4.65;99.13;103260.25;2113459;28;44967;-76
2022/01/15 00:32:09;;;;;;;24.52;6.68;;;;;;;4.66;98.72;103262.97;2114453;27;38171;-76
2022/01/15 00:33:11;;;;;;;24.73;7.32;;;;;;;4.67;98.65;103261.25;2113135;28;44379;-77
2022/01/15 00:34:13;;;;;;;43.47;7.43;;;;;;;4.66;97.81;103256.78;2113657;28;44586;-76
2022/01/15 00:35:16;;;;;;;30.35;7.30;;;;;;;4.68;98.50;103255.09;2114034;28;43913;-76
2022/01/15 00:36:20;;;;;;;27.10;8.05;;;;;;;4.66;98.68;103255.00;2114154;28;20038;-76
2022/01/15 00:37:24;;;;;;;28.77;7.50;;;;;;;4.66;98.24;103259.44;2113084;28;43273;-76
2022/01/15 00:38:29;;;;;;;36.60;8.10;;;;;;;4.65;98.47;103249.66;2114407;27;31684;-77
2022/01/15 00:39:31;;;;;;;30.90;7.63;;;;;;;4.64;98.92;103258.47;2113804;28;44724;-76
2022/01/15 00:40:34;;;;;;;54.58;8.07;;;;;;;4.64;98.66;103253.16;2113760;27;45449;-78
2022/01/15 00:41:36;;;;;;;32.40;7.10;;;;;;;4.62;98.55;103255.75;2113619;28;32015;-78
2022/01/15 00:42:39;;;;;;;41.40;8.80;;;;;;;4.59;98.94;103256.56;2113344;28;44149;-79
2022/01/15 00:43:41;;;;;;;55.03;8.85;;;;;;;4.58;98.76;103259.13;2113910;28;44063;-78
2022/01/15 00:44:43;;;;;;;45.30;8.20;;;;;;;4.59;99.14;103261.84;2114220;27;39397;-78
2022/01/15 00:45:46;;;;;;;39.22;8.70;;;;;;;4.59;98.86;103260.94;2114322;28;45277;-78
2022/01/15 00:46:47;;;;;;;28.83;7.82;;;;;;;4.60;98.56;103262.75;2113246;27;45368;-78
2022/01/15 00:47:51;;;;;;;68.28;8.68;;;;;;;4.60;98.91;103254.78;2113974;27;44261;-76
2022/01/15 00:48:53;;;;;;;74.55;8.05;;;;;;;4.57;98.71;103252.91;2113704;27;44113;-77
2022/01/15 00:49:55;;;;;;;47.17;8.15;;;;;;;4.57;99.65;103258.22;2113388;28;45110;-78
2022/01/15 00:50:58;;;;;;;48.78;8.52;;;;;;;4.55;99.33;103257.25;2113791;28;43495;-78
2022/01/15 00:52:03;;;;;;;22.48;7.57;;;;;;;4.56;98.51;103255.53;2114026;28;44067;-76
2022/01/15 00:53:04;;;;;;;36.28;8.10;;;;;;;4.56;98.96;103267.03;2114044;28;43632;-76
2022/01/15 00:54:06;;;;;;;58.63;8.77;;;;;;;4.58;98.68;103257.38;2113102;28;45419;-76
2022/01/15 00:55:11;;;;;;;39.55;8.70;;;;;;;4.56;98.75;103248.47;2113527;28;43981;-76
2022/01/15 00:56:12;;;;;;;21.63;7.10;;;;;;;4.59;98.96;103251.25;2113187;28;42521;-77
2022/01/15 00:57:14;;;;;;;32.50;8.70;;;;;;;4.58;99.17;103240.56;2113337;27;45629;-77
2022/01/15 00:58:16;;;;;;;39.67;9.00;;;;;;;4.58;99.36;103244.13;2114017;27;36965;-77
2022/01/15 00:59:18;;;;;;;39.72;8.60;;;;;;;4.59;98.54;103245.94;2113656;27;45226;-77
2022/01/15 01:00:23;;;;;;;31.52;8.85;;;;;;;4.59;99.08;103240.63;2112908;27;45136;-76
2022/01/15 01:01:24;;;;;;;46.88;9.05;;;;;;;4.58;98.63;103237.91;2113426;28;42129;-77
2022/01/15 01:02:26;;;;;;;26.85;8.20;;;;;;;4.58;98.49;103232.59;2113159;27;44500;-76
2022/01/15 01:03:28;;;;;;;19.63;6.55;;;;;;;4.61;99.35;103245.06;2113333;28;46066;-78
2022/01/15 01:04:30;;;;;;;31.83;8.25;;;;;;;4.61;99.11;103234.47;2113344;28;44172;-76
2022/01/15 01:05:32;;;;;;;17.45;6.53;;;;;;;4.61;98.61;103235.34;2112969;28;45284;-76
2022/01/15 01:06:34;;;;;;;39.38;9.40;;;;;;;4.60;98.63;103238.88;2113584;28;41095;-76
2022/01/15 01:07:38;;;;;;;30.30;8.88;;;;;;;4.59;99.14;103234.41;2113334;28;45408;-76
2022/01/15 01:08:40;;;;;;;55.22;8.30;;;;;;;4.56;99.57;103234.31;2112752;28;43965;-76
2022/01/15 01:10:56;;;;;;;41.83;7.25;;;;;;;4.57;99.48;103234.34;2113705;28;45689;-76
2022/01/15 01:12:09;;;;;;;32.22;7.30;;;;;;;4.57;98.68;103239.63;2113570;28;44685;-75
2022/01/15 01:13:31;;;;;;;42.67;8.27;;;;;;;4.57;98.76;103231.69;2112780;28;46721;-77
2022/01/15 01:20:08;;;;;;;52.05;6.05;;;;;;;4.47;99.37;103216.28;2113917;27;43084;-76
2022/01/15 01:22:53;;;;;;;127.60;8.23;;;;;;;4.43;98.81;103221.38;2114397;28;43373;-74
2022/01/15 01:23:52;;;;;;;139.95;8.55;;;;;;;4.41;98.63;103218.66;2113483;28;20044;-76
2022/01/15 01:24:54;;;;;;;57.42;5.53;;;;;;;4.40;98.52;103216.88;2113412;28;44536;-76
2022/01/15 01:26:11;;;;;;;72.90;8.80;;;;;;;4.40;98.84;103214.22;2113616;27;43223;-76
2022/01/15 01:27:43;;;;;;;25.63;5.43;;;;;;;4.40;98.95;103214.22;2113195;28;46318;-78
2022/01/15 01:28:43;;;;;;;70.03;7.35;;;;;;;4.39;99.10;103215.94;2112001;28;40846;-76
2022/01/15 01:30:53;;;;;;;98.05;9.00;;;;;;;4.40;99.26;103211.56;2113703;27;45834;-76
2022/01/15 01:32:05;;;;;;;82.85;7.82;;;;;;;4.38;98.90;103210.63;2114720;27;20151;-75
2022/01/15 01:34:13;;;;;;;46.97;6.22;;;;;;;4.38;98.92;103202.66;2113632;28;42326;-75
2022/01/15 01:35:30;;;;;;;41.97;7.97;;;;;;;4.37;98.92;103200.84;2113482;28;44107;-76
2022/01/15 01:37:20;;;;;;;56.00;6.63;;;;;;;4.36;98.56;103204.31;2114595;27;20048;-75
2022/01/15 01:38:06;;;;;;;33.47;6.18;;;;;;;4.37;99.27;103206.13;2113344;27;34384;-76
2022/01/15 01:39:17;;;;;;;35.63;6.13;;;;;;;4.35;98.93;103198.13;2113019;28;43322;-75
2022/01/15 01:40:23;;;;;;;47.25;6.20;;;;;;;4.36;98.87;103193.72;2107279;28;44580;-75
2022/01/15 01:41:34;;;;;;;61.65;6.60;;;;;;;4.33;99.07;103202.47;2106390;28;42900;-77
2022/01/15 01:42:43;;;;;;;43.28;7.45;;;;;;;4.35;99.22;103210.47;2098297;28;45292;-78
2022/01/15 01:45:15;;;;;;;36.97;7.55;;;;;;;4.35;98.82;103202.53;2113060;27;45232;-75
2022/01/15 01:47:29;;;;;;;82.15;6.75;;;;;;;4.37;99.39;103195.53;2112978;27;45215;-75
2022/01/15 01:48:31;;;;;;;50.85;8.25;;;;;;;4.36;98.83;103199.94;2113715;28;45488;-75
2022/01/15 01:49:35;;;;;;;39.72;6.80;;;;;;;4.37;98.91;103206.13;2113288;27;24232;-75
2022/01/15 01:50:36;;;;;;;47.97;7.00;;;;;;;4.37;99.11;103201.72;2113370;28;43845;-76
2022/01/15 01:51:39;;;;;;;41.90;7.78;;;;;;;4.37;99.25;103195.53;2113689;28;44699;-76
2022/01/15 01:52:45;;;;;;;85.28;9.85;;;;;;;4.32;98.85;103200.63;2113674;27;43046;-76
2022/01/15 01:53:49;;;;;;;66.40;8.27;;;;;;;4.35;98.89;103202.53;2113232;27;45124;-76
2022/01/15 01:54:51;;;;;;;64.05;8.70;;;;;;;4.36;99.60;103193.72;2113567;28;43574;-76
2022/01/15 01:55:53;;;;;;;70.55;7.95;;;;;;;4.36;99.30;103199.00;2113127;28;44417;-76
2022/01/15 01:56:54;;;;;;;42.60;10.13;;;;;;;4.36;98.95;103193.72;2113759;28;44358;-76
2022/01/15 01:57:59;;;;;;;23.15;7.07;;;;;;;4.37;99.37;103193.78;2113021;28;43902;-77
2022/01/15 01:59:03;;;;;;;73.40;8.18;;;;;;;4.37;98.87;103195.53;2111841;27;45792;-76
2022/01/15 02:00:12;;;;;;;77.97;8.70;;;;;;;4.33;99.17;103194.50;2113130;28;43369;-76
2022/01/15 02:01:17;;;;;;;53.20;8.73;;;;;;;4.33;99.06;103204.22;2109745;28;20036;-76
2022/01/15 02:02:19;;;;;;;27.58;7.75;;;;;;;4.34;99.28;103196.31;2097706;28;33334;-76
2022/01/15 02:03:21;;;;;;;59.85;8.98;;;;;;;4.36;99.26;103199.00;2096054;28;43455;-76
2022/01/15 02:04:22;;;;;;;28.52;7.82;;;;;;;4.36;98.85;103199.94;2104297;28;44135;-76
2022/01/15 02:05:25;;;;;;;66.95;9.98;;;;;;;4.34;99.13;103201.63;2105215;28;44059;-75
2022/01/15 02:06:29;;;;;;;35.85;8.93;;;;;;;4.35;99.33;103195.47;2105020;28;43643;-76
2022/01/15 02:07:31;;;;;;;28.58;8.25;;;;;;;4.36;99.52;103193.72;2107828;28;44943;-75
2022/01/15 02:08:37;;;;;;;27.92;8.18;;;;;;;4.36;99.43;103193.72;2112820;28;40984;-77
2022/01/15 02:09:39;;;;;;;21.10;7.25;;;;;;;4.38;98.89;103198.25;2113738;27;33617;-77
2022/01/15 02:10:42;;;;;;;20.80;7.18;;;;;;;4.39;99.47;103188.53;2112890;28;43498;-76
2022/01/15 02:11:44;;;;;;;23.67;8.18;;;;;;;4.39;99.57;103192.06;2113361;27;43999;-76
2022/01/15 02:12:50;;;;;;;20.08;8.57;;;;;;;4.39;99.03;103188.53;2121199;27;41611;-76
2022/01/15 02:13:52;;;;;;;27.25;8.38;;;;;;;4.39;99.34;103188.53;2113303;27;42358;-76
2022/01/15 02:14:54;;;;;;;18.45;7.50;;;;;;;4.40;99.00;103185.94;2113468;27;42488;-76
2022/01/15 02:16:00;;;;;;;15.32;7.22;;;;;;;4.41;99.25;103184.19;2113488;28;43220;-76
2022/01/15 02:17:02;;;;;;;16.52;6.55;;;;;;;4.42;98.86;103180.72;2112655;28;45331;-76
2022/01/15 02:18:04;;;;;;;17.30;8.05;;;;;;;4.42;99.32;103183.34;2113002;28;46244;-76
2022/01/15 02:19:06;;;;;;;16.73;7.90;;;;;;;4.42;98.99;103179.81;2113409;28;43652;-75
2022/01/15 02:24:05;;;;;;;19.45;8.35;;;;;;;4.43;99.24;103174.53;2113766;28;38490;-76
2022/01/15 02:25:08;;;;;;;22.80;8.43;;;;;;;4.43;99.08;103161.28;2112391;28;45836;-76
2022/01/15 02:26:26;;;;;;;23.20;8.85;;;;;;;4.44;98.94;103159.53;2112905;28;43629;-75
2022/01/15 02:27:27;;;;;;;14.25;8.38;;;;;;;4.45;99.23;103151.66;2111969;28;46225;-75
2022/01/15 02:28:34;;;;;;;14.30;8.02;;;;;;;4.46;99.27;103158.75;2113301;28;43650;-75
2022/01/15 02:29:36;;;;;;;22.67;8.70;;;;;;;4.46;98.79;103158.75;2113154;28;45326;-75
2022/01/15 02:30:38;;;;;;;18.83;9.65;;;;;;;4.48;99.26;103156.16;2113158;28;44722;-75
2022/01/15 02:31:40;;;;;;;18.80;8.95;;;;;;;4.49;99.32;103150.03;2104064;28;44260;-76
2022/01/15 02:32:42;;;;;;;23.85;9.80;;;;;;;4.48;99.34;103159.72;2104568;28;45970;-75
2022/01/15 02:33:49;;;;;;;21.70;8.68;;;;;;;4.48;99.50;103149.09;2113363;28;43341;-75
2022/01/15 02:34:51;;;;;;;20.67;9.27;;;;;;;4.49;99.49;103147.38;2113315;27;44330;-75
2022/01/15 02:35:53;;;;;;;18.55;8.65;;;;;;;4.50;98.94;103152.69;2112987;28;44487;-77
2022/01/15 02:36:55;;;;;;;14.43;7.22;;;;;;;4.50;98.99;103150.06;2113272;28;45370;-77
2022/01/15 02:38:07;;;;;;;17.85;8.60;;;;;;;4.52;99.22;103145.75;2112840;28;44953;-77
2022/01/15 02:39:09;;;;;;;17.60;7.47;;;;;;;4.53;99.12;103144.88;2113270;28;42298;-77
2022/01/15 02:40:11;;;;;;;13.40;6.97;;;;;;;4.53;99.06;103144.88;2113371;28;43894;-77
2022/01/15 02:41:14;;;;;;;20.15;9.15;;;;;;;4.54;99.32;103136.09;2112972;28;43325;-78
2022/01/15 02:42:16;;;;;;;18.77;9.63;;;;;;;4.53;99.08;103131.59;2113977;27;33636;-76
2022/01/15 02:43:27;;;;;;;21.55;8.77;;;;;;;4.54;98.62;103130.78;2112206;28;46517;-75
2022/01/15 02:44:33;;;;;;;17.33;9.48;;;;;;;4.54;98.44;103135.16;2113458;28;43444;-76
2022/01/15 02:45:37;;;;;;;20.80;9.27;;;;;;;4.55;98.70;103132.56;2113541;27;36395;-75
2022/01/15 02:48:01;;;;;;;25.83;10.18;;;;;;;4.55;99.10;103127.25;2112793;28;43895;-78
2022/01/15 02:49:05;;;;;;;21.13;9.43;;;;;;;4.57;99.13;103130.88;2112816;28;45351;-75
2022/01/15 02:50:10;;;;;;;15.43;6.70;;;;;;;4.59;99.15;103131.84;2113267;28;45410;-75
2022/01/15 02:51:12;;;;;;;18.73;7.85;;;;;;;4.58;99.46;103132.69;2114083;27;20802;-78
2022/01/15 02:52:14;;;;;;;19.77;8.55;;;;;;;4.59;98.79;103138.88;2112376;27;44954;-76
2022/01/15 02:53:17;;;;;;;20.27;9.82;;;;;;;4.58;98.90;103131.78;2104455;28;43848;-76
2022/01/15 02:54:19;;;;;;;18.48;8.15;;;;;;;4.59;99.33;103129.19;2112502;28;44050;-76
2022/01/15 02:55:20;;;;;;;19.52;9.55;;;;;;;4.61;99.33;103128.34;2113318;28;44627;-76
2022/01/15 02:56:31;;;;;;;15.50;7.10;;;;;;;4.60;98.79;103127.44;2113097;28;45606;-75
2022/01/15 02:57:33;;;;;;;20.77;9.32;;;;;;;4.61;98.80;103126.56;2112797;27;35149;-76
2022/01/15 02:58:36;;;;;;;20.95;9.45;;;;;;;4.62;98.83;103124.84;2113520;28;42252;-76
2022/01/15 02:59:37;;;;;;;24.38;9.10;;;;;;;4.62;99.32;103130.16;2112249;28;45406;-76
2022/01/15 03:00:39;;;;;;;25.67;10.43;;;;;;;4.62;99.22;103130.16;2103841;28;46095;-76
2022/01/15 03:01:43;;;;;;;19.60;9.65;;;;;;;4.62;98.98;103130.16;2103920;28;44316;-76
2022/01/15 03:02:45;;;;;;;21.35;10.20;;;;;;;4.63;99.30;103130.22;2096650;28;30737;-76
2022/01/15 03:03:47;;;;;;;23.08;10.93;;;;;;;4.61;98.84;103131.88;2104037;28;44029;-76
2022/01/15 03:04:49;;;;;;;24.65;9.38;;;;;;;4.62;99.55;103133.69;2112718;28;45579;-76
2022/01/15 03:05:53;;;;;;;34.67;10.50;;;;;;;4.62;98.45;103139.00;2112137;28;46108;-76
2022/01/15 03:06:57;;;;;;;24.38;9.48;;;;;;;4.63;99.07;103129.28;2104735;28;45478;-76
2022/01/15 03:07:59;;;;;;;27.00;11.32;;;;;;;4.62;99.50;103124.84;2112237;28;35611;-76
2022/01/15 03:09:00;;;;;;;25.60;10.85;;;;;;;4.62;99.08;103124.84;2112759;28;44841;-75
2022/01/15 03:10:05;;;;;;;23.65;11.20;;;;;;;4.62;99.04;103119.53;2112103;28;44043;-76
2022/01/15 03:11:07;;;;;;;26.88;11.00;;;;;;;4.62;98.85;103114.25;2112387;28;45683;-76
2022/01/15 03:12:11;;;;;;;24.00;10.52;;;;;;;4.61;98.73;103113.31;2112622;28;42556;-76
2022/01/15 03:13:14;;;;;;;21.92;9.27;;;;;;;4.61;99.20;103120.38;2112718;28;45516;-75
2022/01/15 03:14:19;;;;;;;26.20;12.02;;;;;;;4.60;98.34;103116.84;2113288;28;45316;-76
2022/01/15 03:15:21;;;;;;;23.85;11.18;;;;;;;4.61;98.82;103120.38;2112746;28;45061;-75
2022/01/15 03:16:23;;;;;;;34.17;11.77;;;;;;;4.61;98.84;103117.72;2112335;28;46395;-76
2022/01/15 03:17:25;;;;;;;27.25;11.43;;;;;;;4.59;98.98;103123.91;2113160;28;20141;-76
2022/01/15 03:18:27;;;;;;;31.42;11.02;;;;;;;4.58;99.02;103127.38;2111419;28;45402;-76
2022/01/15 03:19:29;;;;;;;28.80;11.43;;;;;;;4.58;98.38;103127.38;2112643;28;45391;-76
2022/01/15 03:20:32;;;;;;;24.17;9.18;;;;;;;4.57;98.63;103122.91;2103974;28;45630;-75
2022/01/15 03:21:33;;;;;;;32.33;11.30;;;;;;;4.57;99.45;103120.25;2112453;28;45123;-76
2022/01/15 03:22:35;;;;;;;15.30;8.93;;;;;;;4.57;98.97;103120.25;2113243;28;41775;-76
2022/01/15 03:23:38;;;;;;;30.20;11.93;;;;;;;4.57;99.35;103108.75;2112736;28;43811;-76
2022/01/15 03:24:39;;;;;;;25.30;10.55;;;;;;;4.57;98.69;103114.94;2112674;28;44762;-76
2022/01/15 03:25:42;;;;;;;25.73;11.43;;;;;;;4.56;99.10;103107.84;2112439;28;43632;-77
2022/01/15 03:26:46;;;;;;;28.90;12.20;;;;;;;4.57;98.72;103108.75;2112899;28;45122;-76
2022/01/15 03:27:48;;;;;;;24.08;11.85;;;;;;;4.55;98.32;103094.53;2112848;27;35546;-76
2022/01/15 03:28:50;;;;;;;28.45;11.48;;;;;;;4.54;99.03;103093.63;2113149;28;45238;-76
2022/01/15 03:29:55;;;;;;;27.42;12.55;;;;;;;4.54;98.64;103096.28;2111676;28;44549;-76
2022/01/15 03:30:56;;;;;;;28.35;11.70;;;;;;;4.53;98.64;103096.22;2112855;28;42153;-76
2022/01/15 03:31:58;;;;;;;21.20;10.80;;;;;;;4.51;99.46;103098.81;2112659;27;44491;-76
2022/01/15 03:33:00;;;;;;;24.52;10.85;;;;;;;4.52;99.18;103098.00;2113108;28;44728;-76
2022/01/15 03:34:01;;;;;;;29.17;11.80;;;;;;;4.51;99.17;103095.28;2112830;28;43754;-77
2022/01/15 03:35:04;;;;;;;25.63;10.98;;;;;;;4.50;98.47;103101.41;2111498;28;44629;-76
2022/01/15 03:36:06;;;;;;;69.40;12.65;;;;;;;4.49;98.75;103104.94;2113311;27;35799;-76
2022/01/15 03:37:09;;;;;;;50.42;11.45;;;;;;;4.47;98.83;103104.88;2113330;27;34459;-76
2022/01/15 03:38:12;;;;;;;56.05;12.63;;;;;;;4.46;98.37;103103.03;2104401;28;20109;-76
2022/01/15 03:39:14;;;;;;;72.82;13.40;;;;;;;4.44;98.98;103102.09;2104632;28;45227;-76
2022/01/15 03:40:16;;;;;;;30.25;10.82;;;;;;;4.42;98.82;103098.47;2112026;27;45143;-76
2022/01/15 03:41:18;;;;;;;52.78;13.80;;;;;;;4.40;98.90;103100.19;2112541;28;42523;-75
2022/01/15 03:42:19;;;;;;;38.33;10.57;;;;;;;4.39;98.68;103095.72;2112480;28;46539;-76
2022/01/15 03:43:22;;;;;;;28.05;11.02;;;;;;;4.36;99.04;103093.84;2103859;28;43651;-76
2022/01/15 03:44:26;;;;;;;34.95;12.70;;;;;;;4.35;98.51;103096.44;2112893;28;36842;-77
2022/01/15 03:45:28;;;;;;;32.20;13.40;;;;;;;4.33;98.51;103088.44;2112457;27;46921;-76
2022/01/15 03:46:30;;;;;;;27.23;12.15;;;;;;;4.34;99.27;103092.91;2113174;27;42367;-76
2022/01/15 03:47:32;;;;;;;24.10;9.70;;;;;;;4.32;99.07;103088.38;2112493;27;45527;-77
2022/01/15 03:48:34;;;;;;;22.40;10.55;;;;;;;4.32;98.92;103091.03;2113219;28;45841;-76
2022/01/15 03:49:39;;;;;;;35.42;12.75;;;;;;;4.30;99.18;103087.41;2113550;27;20856;-76
2022/01/15 03:50:41;;;;;;;30.08;12.00;;;;;;;4.30;98.75;103093.59;2112606;28;44896;-76
2022/01/15 03:51:45;;;;;;;29.73;11.10;;;;;;;4.29;99.49;103093.53;2114374;27;20048;-76
2022/01/15 03:52:47;;;;;;;38.97;11.50;;;;;;;4.29;98.87;103102.44;2112906;27;33443;-77
2022/01/15 03:53:49;;;;;;;26.08;12.65;;;;;;;4.29;98.99;103101.50;2112756;28;45964;-77
2022/01/15 03:54:51;;;;;;;29.33;10.65;;;;;;;4.28;99.26;103097.06;2112333;28;42666;-75
2022/01/15 03:55:53;;;;;;;36.35;12.25;;;;;;;4.28;98.93;103105.00;2103640;28;43326;-76
2022/01/15 03:56:57;;;;;;;46.25;12.68;;;;;;;4.27;98.78;103101.47;2112559;28;44676;-76
2022/01/15 03:58:03;;;;;;;28.27;11.10;;;;;;;4.27;98.48;103097.88;2112477;28;45107;-76
2022/01/15 03:59:05;;;;;;;36.65;12.30;;;;;;;4.26;98.57;103110.25;2112780;28;46413;-76
2022/01/15 04:00:14;;;;;;;35.30;11.82;;;;;;;4.25;98.66;103103.13;2112712;28;42347;-76
2022/01/15 04:01:16;;;;;;;21.73;9.07;;;;;;;4.22;99.01;103108.34;2112681;28;44308;-76
2022/01/15 04:02:18;;;;;;;24.80;10.27;;;;;;;4.21;99.02;103104.75;2113080;28;45821;-76
2022/01/15 04:03:19;;;;;;;22.60;9.57;;;;;;;4.20;98.38;103110.94;2112285;28;36447;-77
2022/01/15 04:04:22;;;;;;;30.08;11.77;;;;;;;4.18;99.12;103109.97;2103544;28;46237;-78
2022/01/15 04:05:24;;;;;;;26.85;10.20;;;;;;;4.17;98.81;103105.50;2110950;27;42535;-76
2022/01/15 04:06:25;;;;;;;32.33;12.93;;;;;;;4.17;99.12;103101.97;2120482;27;38257;-76
2022/01/15 04:07:30;;;;;;;38.30;13.50;;;;;;;4.17;98.61;103102.84;2112484;28;45919;-76
2022/01/15 04:08:32;;;;;;;33.28;13.05;;;;;;;4.18;99.49;103104.66;2112465;28;45286;-76
2022/01/15 04:09:34;;;;;;;35.88;13.80;;;;;;;4.16;99.10;103100.13;2113343;28;20043;-77
2022/01/15 04:10:36;;;;;;;29.98;10.85;;;;;;;4.17;99.14;103108.16;2112229;28;42406;-75
2022/01/15 04:11:39;;;;;;;26.15;9.65;;;;;;;4.17;99.15;103107.25;2112320;28;45173;-75
2022/01/15 04:12:42;;;;;;;38.15;13.95;;;;;;;4.17;98.84;103101.97;2112802;27;44635;-76
2022/01/15 04:13:44;;;;;;;35.63;12.55;;;;;;;4.16;99.31;103102.78;2104858;28;42879;-76
2022/01/15 04:14:49;;;;;;;32.05;12.75;;;;;;;4.17;99.58;103100.19;2105280;28;20151;-76
2022/01/15 04:15:53;;;;;;;27.50;10.50;;;;;;;4.16;99.28;103101.06;2104716;28;35873;-76
2022/01/15 04:16:55;;;;;;;39.08;12.57;;;;;;;4.15;99.42;103099.25;2104446;28;44091;-77
2022/01/15 04:17:57;;;;;;;47.47;13.38;;;;;;;4.14;98.91;103097.41;2103416;28;45015;-76
2022/01/15 04:19:00;;;;;;;21.35;9.52;;;;;;;4.13;99.01;103100.03;2104070;28;42261;-77
2022/01/15 04:20:04;;;;;;;35.45;13.65;;;;;;;4.12;98.94;103099.13;2104303;28;44097;-77
2022/01/15 04:21:10;;;;;;;37.10;12.82;;;;;;;4.12;99.19;103099.13;2104596;28;33618;-77
2022/01/15 04:22:11;;;;;;;32.20;12.20;;;;;;;4.11;98.97;103096.41;2105235;28;45196;-77
2022/01/15 04:23:15;;;;;;;25.05;10.65;;;;;;;4.12;98.71;103100.88;2096852;28;44005;-77
2022/01/15 04:24:20;;;;;;;25.88;11.80;;;;;;;4.10;99.57;103095.50;2105473;28;41383;-76
2022/01/15 04:25:21;;;;;;;29.08;11.52;;;;;;;4.11;99.11;103099.03;2113980;28;44423;-76
2022/01/15 04:26:25;;;;;;;34.80;12.77;;;;;;;4.07;99.21;103095.38;2113351;28;45861;-77
2022/01/15 04:27:27;;;;;;;24.33;11.07;;;;;;;4.07;99.08;103100.69;2105306;28;44947;-76
2022/01/15 04:28:34;;;;;;;26.50;11.82;;;;;;;4.06;98.76;103093.59;2114166;28;32210;-76
2022/01/15 04:29:36;;;;;;;26.77;11.10;;;;;;;4.06;98.97;103088.28;2114165;28;42180;-77
2022/01/15 04:30:41;;;;;;;26.88;12.32;;;;;;;4.06;99.23;103088.28;2113889;28;44040;-77
2022/01/15 04:31:50;;;;;;;27.42;12.50;;;;;;;4.08;98.77;103091.91;2113576;27;45616;-77
2022/01/15 04:32:52;;;;;;;28.38;12.90;;;;;;;4.07;98.80;103095.38;2113951;27;44366;-77
2022/01/15 04:33:56;;;;;;;24.75;12.20;;;;;;;4.07;99.18;103095.38;2114624;28;37464;-77
2022/01/15 04:34:59;;;;;;;19.77;9.13;;;;;;;4.09;99.11;103091.06;2113816;28;42161;-77
2022/01/15 04:36:03;;;;;;;27.08;12.90;;;;;;;4.10;99.31;103099.91;2113636;28;43924;-77
2022/01/15 04:37:13;;;;;;;28.45;12.75;;;;;;;4.08;99.15;103099.84;2114109;28;20127;-77
2022/01/15 04:38:14;;;;;;;23.17;11.68;;;;;;;4.09;98.88;103098.09;2114463;28;42167;-77
2022/01/15 04:39:16;;;;;;;23.73;11.60;;;;;;;4.08;99.40;103102.50;2113960;27;45691;-77
2022/01/15 04:40:18;;;;;;;19.67;10.25;;;;;;;4.09;99.22;103099.03;2114131;28;36933;-77
2022/01/15 04:41:20;;;;;;;24.08;11.30;;;;;;;4.09;99.46;103092.78;2114148;28;45462;-77
2022/01/15 04:42:25;;;;;;;25.80;10.80;;;;;;;4.10;99.02;103094.59;2113949;28;46276;-77
2022/01/15 04:43:29;;;;;;;19.10;10.52;;;;;;;4.09;99.15;103091.06;2115307;27;20963;-77
2022/01/15 04:44:31;;;;;;;22.05;11.23;;;;;;;4.08;99.36;103091.91;2114059;27;44250;-77
2022/01/15 04:45:33;;;;;;;20.08;10.27;;;;;;;4.08;99.37;103094.53;2114176;27;32090;-77
2022/01/15 04:46:36;;;;;;;15.15;8.25;;;;;;;4.09;98.91;103088.41;2113644;28;43920;-77
2022/01/15 04:47:39;;;;;;;17.00;8.75;;;;;;;4.09;99.48;103092.78;2112974;28;45144;-77
2022/01/15 04:48:44;;;;;;;19.92;11.93;;;;;;;4.07;98.75;103092.72;2113967;28;42398;-77
2022/01/15 04:49:45;;;;;;;22.50;11.48;;;;;;;4.08;98.95;103097.19;2113254;28;45279;-78
2022/01/15 04:50:49;;;;;;;24.25;11.70;;;;;;;4.07;99.18;103091.84;2113073;27;45617;-77
2022/01/15 04:51:51;;;;;;;22.23;10.95;;;;;;;4.07;98.91;103089.19;2113923;27;44614;-77
2022/01/15 04:52:53;;;;;;;20.77;11.02;;;;;;;4.08;99.24;103089.25;2113743;28;43801;-77
2022/01/15 04:53:55;;;;;;;22.13;10.52;;;;;;;4.07;99.08;103091.84;2113392;27;42347;-76
2022/01/15 04:54:57;;;;;;;21.88;10.15;;;;;;;4.08;99.15;103097.19;2113912;28;44391;-78
2022/01/15 04:55:58;;;;;;;17.17;9.15;;;;;;;4.06;98.79;103090.94;2113705;27;43639;-77
2022/01/15 04:57:01;;;;;;;16.42;9.10;;;;;;;4.06;99.41;103093.59;2114520;28;37558;-77
2022/01/15 04:58:05;;;;;;;17.13;9.40;;;;;;;4.05;99.37;103091.78;2113513;27;44046;-77
2022/01/15 04:59:10;;;;;;;18.15;9.98;;;;;;;4.04;98.90;103089.06;2114248;28;20048;-77
2022/01/15 05:00:17;;;;;;;15.07;9.90;;;;;;;4.03;99.11;103093.47;2113859;27;42859;-78
2022/01/15 05:01:18;;;;;;;19.88;9.77;;;;;;;4.03;99.39;103088.16;2116890;27;46242;-77
2022/01/15 05:02:20;;;;;;;20.33;9.60;;;;;;;4.03;99.08;103092.56;2105868;28;26103;-77
2022/01/15 05:03:22;;;;;;;15.57;8.00;;;;;;;4.02;99.36;103091.69;2105178;28;45642;-76
2022/01/15 05:04:24;;;;;;;18.38;9.10;;;;;;;4.03;99.17;103088.16;2105692;28;43430;-79
2022/01/15 05:05:27;;;;;;;20.08;9.82;;;;;;;4.00;99.17;103086.31;2105409;28;45472;-76
2022/01/15 05:06:31;;;;;;;18.85;9.50;;;;;;;4.00;99.18;103082.72;2106075;28;24758;-79
2022/01/15 05:07:33;;;;;;;15.10;9.48;;;;;;;4.00;98.76;103088.03;2105247;28;40955;-76
2022/01/15 05:08:35;;;;;;;14.07;9.13;;;;;;;3.99;98.94;103086.25;2105665;28;44072;-79
2022/01/15 05:09:37;;;;;;;19.40;9.20;;;;;;;4.00;98.93;103093.34;2104400;28;45563;-77
2022/01/15 05:10:45;;;;;;;16.48;9.45;;;;;;;3.99;98.74;103094.19;2110112;28;45379;-77
2022/01/15 05:12:09;;;;;;;16.10;9.70;;;;;;;3.99;99.70;103096.84;2113007;28;43963;-77
2022/01/15 05:13:14;;;;;;;18.40;9.52;;;;;;;3.99;98.96;103086.25;2113382;28;42020;-78